RA70112 UNNT-UNNT
Flight info
| Callsign | RA70112 |
|---|---|
| Flight time | 0h 3m |
| Altitude | 6000 |
| Route | DCT |
| Aircraft | DA62/L-SDFGRY/C |
Departure
| Time | 2026-04-30 11:14 |
|---|---|
| Airport | Novosibirsk Tolmachevo Airport (UNNT) |
Arrival
| Time | 2026-04-30 11:17 |
|---|---|
| Airport | Novosibirsk Tolmachevo Airport (UNNT) |
| Time | Latitude | Longitude | Altitude | Speed | Heading |
|---|---|---|---|---|---|
| 2026-04-30 11:05 | 55.01161 | 82.67373 | 0 ft | 0 kts | 171° |
| 2026-04-30 11:11 | 55.01103 | 82.67407 | 367 ft | 9 kts | 117° |
| 2026-04-30 11:11 | 55.01155 | 82.67498 | 367 ft | 17 kts | 33° |
| 2026-04-30 11:11 | 55.01259 | 82.67605 | 367 ft | 18 kts | 32° |
| 2026-04-30 11:11 | 55.01342 | 82.67690 | 367 ft | 17 kts | 30° |
| 2026-04-30 11:12 | 55.01370 | 82.67720 | 367 ft | 0 kts | 30° |
| 2026-04-30 11:12 | 55.01465 | 82.67750 | 366 ft | 25 kts | 313° |
| 2026-04-30 11:12 | 55.01443 | 82.67254 | 367 ft | 70 kts | 260° |
| 2026-04-30 11:13 | 55.01375 | 82.66182 | 445 ft | 101 kts | 268° |
| 2026-04-30 11:13 | 55.01866 | 82.65490 | 653 ft | 112 kts | 18° |
| 2026-04-30 11:13 | 55.02588 | 82.66218 | 726 ft | 132 kts | 34° |
| 2026-04-30 11:13 | 55.03345 | 82.67201 | 848 ft | 141 kts | 40° |
| 2026-04-30 11:14 | 55.04153 | 82.68357 | 923 ft | 157 kts | 41° |
| 2026-04-30 11:14 | 55.04991 | 82.69578 | 1124 ft | 156 kts | 38° |
| 2026-04-30 11:14 | 55.05767 | 82.70978 | 1197 ft | 165 kts | 54° |
| 2026-04-30 11:14 | 55.06474 | 82.72587 | 1273 ft | 170 kts | 53° |
| 2026-04-30 11:15 | 55.07274 | 82.74195 | 1136 ft | 180 kts | 48° |
| 2026-04-30 11:15 | 55.08159 | 82.75685 | 1284 ft | 175 kts | 39° |
| 2026-04-30 11:15 | 55.08745 | 82.77285 | 1629 ft | 156 kts | 90° |
| 2026-04-30 11:15 | 55.08400 | 82.79163 | 1501 ft | 171 kts | 119° |
| 2026-04-30 11:16 | 55.07883 | 82.81155 | 1139 ft | 180 kts | 115° |
| 2026-04-30 11:16 | 55.07166 | 82.81904 | 1182 ft | 109 kts | 207° |
| 2026-04-30 11:16 | 55.07098 | 82.80759 | 861 ft | 111 kts | 295° |
| 2026-04-30 11:16 | 55.07520 | 82.79649 | 572 ft | 107 kts | 310° |
| 2026-04-30 11:17 | 55.08050 | 82.78850 | 334 ft | 93 kts | 325° |
| 2026-04-30 11:17 | 55.08422 | 82.78497 | 311 ft | 37 kts | 321° |
| 2026-04-30 11:17 | 55.08594 | 82.78346 | 315 ft | 16 kts | 343° |
| 2026-04-30 11:17 | 55.08718 | 82.78353 | 316 ft | 20 kts | 15° |
| 2026-04-30 11:18 | 55.08888 | 82.78350 | 313 ft | 29 kts | 357° |
| 2026-04-30 11:18 | 55.08982 | 82.78376 | 318 ft | 0 kts | 171° |
| 2026-04-30 11:24 | 55.08902 | 82.78387 | 317 ft | 21 kts | 182° |
| 2026-04-30 11:24 | 55.08739 | 82.78420 | 318 ft | 21 kts | 171° |
| 2026-04-30 11:25 | 55.08542 | 82.78441 | 314 ft | 0 kts | 181° |
| 2026-04-30 11:25 | 55.08489 | 82.78461 | 310 ft | 25 kts | 167° |
| 2026-04-30 11:25 | 55.08194 | 82.78676 | 314 ft | 13 kts | 150° |
| 2026-04-30 11:26 | 55.08155 | 82.78713 | 312 ft | 0 kts | 124° |
| 2026-04-30 11:27 | 55.08155 | 82.78712 | 312 ft | 0 kts | 125° |
| 2026-04-30 11:35 | 55.08130 | 82.78768 | 311 ft | 12 kts | 128° |
| 2026-04-30 11:35 | 55.08108 | 82.78833 | 310 ft | 8 kts | 108° |
| 2026-04-30 11:36 | 55.08073 | 82.78887 | 301 ft | 8 kts | 221° |
| 2026-04-30 11:36 | 55.08079 | 82.78829 | 309 ft | 5 kts | 307° |
| 2026-04-30 11:36 | 55.08091 | 82.78804 | 312 ft | 0 kts | 326° |
| 2026-04-30 11:44 | 55.08100 | 82.78793 | 309 ft | 0 kts | 316° |
| 2026-04-30 11:44 | 55.08100 | 82.78792 | 309 ft | 2 kts | 318° |
| 2026-04-30 11:45 | 55.08252 | 82.78644 | 314 ft | 49 kts | 330° |
| 2026-04-30 11:45 | 55.08702 | 82.78427 | 322 ft | 84 kts | 349° |
| 2026-04-30 11:45 | 55.09338 | 82.78261 | 419 ft | 99 kts | 0° |
| 2026-04-30 11:45 | 55.10021 | 82.78630 | 534 ft | 107 kts | 37° |
| 2026-04-30 11:46 | 55.10313 | 82.79754 | 701 ft | 105 kts | 101° |
| 2026-04-30 11:46 | 55.09763 | 82.80501 | 677 ft | 113 kts | 166° |
| 2026-04-30 11:46 | 55.09040 | 82.80741 | 917 ft | 90 kts | 168° |
| 2026-04-30 11:46 | 55.08422 | 82.81111 | 873 ft | 103 kts | 148° |
| 2026-04-30 11:47 | 55.07864 | 82.81984 | 1113 ft | 108 kts | 134° |
| 2026-04-30 11:47 | 55.07382 | 82.83120 | 1199 ft | 140 kts | 125° |
| 2026-04-30 11:47 | 55.06836 | 82.84660 | 1349 ft | 146 kts | 123° |
| 2026-04-30 11:47 | 55.06318 | 82.86366 | 1151 ft | 172 kts | 119° |
| 2026-04-30 11:48 | 55.05667 | 82.88143 | 1093 ft | 172 kts | 126° |
| 2026-04-30 11:48 | 55.05131 | 82.90068 | 1151 ft | 163 kts | 114° |
| 2026-04-30 11:48 | 55.04361 | 82.91518 | 1026 ft | 171 kts | 144° |
| 2026-04-30 11:48 | 55.03535 | 82.93058 | 772 ft | 182 kts | 127° |
| 2026-04-30 11:49 | 55.02689 | 82.94543 | 852 ft | 166 kts | 153° |
| 2026-04-30 11:49 | 55.01665 | 82.95440 | 1095 ft | 155 kts | 151° |
| 2026-04-30 11:49 | 55.00902 | 82.96661 | 1448 ft | 146 kts | 133° |
| 2026-04-30 11:49 | 55.00204 | 82.98128 | 1237 ft | 161 kts | 134° |
| 2026-04-30 11:50 | 54.99387 | 82.98721 | 827 ft | 108 kts | 180° |
| 2026-04-30 11:50 | 54.98691 | 82.98572 | 569 ft | 101 kts | 191° |
| 2026-04-30 11:50 | 54.98130 | 82.97974 | 352 ft | 84 kts | 231° |
| 2026-04-30 11:50 | 54.97966 | 82.97537 | 296 ft | 6 kts | 192° |
| 2026-04-30 11:51 | 54.97946 | 82.97465 | 297 ft | 9 kts | 266° |
| 2026-04-30 11:51 | 54.97900 | 82.97326 | 331 ft | 7 kts | 225° |
| 2026-04-30 11:51 | 54.97806 | 82.97099 | 323 ft | 49 kts | 243° |
| 2026-04-30 11:51 | 54.97612 | 82.96548 | 348 ft | 16 kts | 238° |
| 2026-04-30 11:52 | 54.97603 | 82.96521 | 346 ft | 0 kts | 237° |
| 2026-04-30 11:52 | 54.97382 | 82.95681 | 518 ft | 109 kts | 256° |
| 2026-04-30 11:52 | 54.97582 | 82.94675 | 425 ft | 91 kts | 314° |
| 2026-04-30 11:53 | 54.98008 | 82.93933 | 328 ft | 57 kts | 303° |
| 2026-04-30 11:53 | 54.98253 | 82.93467 | 315 ft | 77 kts | 325° |
| 2026-04-30 11:53 | 54.98821 | 82.93004 | 413 ft | 103 kts | 339° |
| 2026-04-30 11:53 | 54.99343 | 82.93604 | 513 ft | 121 kts | 112° |
| 2026-04-30 11:54 | 54.98674 | 82.94694 | 455 ft | 145 kts | 143° |
| 2026-04-30 11:54 | 54.97846 | 82.95847 | 373 ft | 161 kts | 143° |
| 2026-04-30 11:54 | 54.97073 | 82.97159 | 710 ft | 134 kts | 112° |
| 2026-04-30 11:54 | 54.97611 | 82.97330 | 831 ft | 125 kts | 303° |
| 2026-04-30 11:55 | 54.98031 | 82.95919 | 1016 ft | 82 kts | 265° |
| 2026-04-30 11:55 | 54.97718 | 82.95297 | 1103 ft | 116 kts | 202° |
| 2026-04-30 11:55 | 54.96810 | 82.95084 | 943 ft | 124 kts | 180° |
| 2026-04-30 11:55 | 54.96000 | 82.95225 | 738 ft | 98 kts | 210° |
| 2026-04-30 11:56 | 54.96100 | 82.94337 | 566 ft | 86 kts | 304° |
| 2026-04-30 11:56 | 54.96431 | 82.93643 | 489 ft | 45 kts | 308° |
| 2026-04-30 11:56 | 54.96496 | 82.93559 | 488 ft | 0 kts | 336° |
| 2026-04-30 11:57 | 54.96578 | 82.93467 | 483 ft | 18 kts | 302° |
| 2026-04-30 11:57 | 54.96445 | 82.93517 | 483 ft | 49 kts | 137° |
| 2026-04-30 11:57 | 54.96081 | 82.94018 | 491 ft | 80 kts | 148° |
| 2026-04-30 11:58 | 54.95562 | 82.94596 | 589 ft | 98 kts | 149° |
| 2026-04-30 11:58 | 54.94822 | 82.95051 | 465 ft | 136 kts | 185° |
| 2026-04-30 11:58 | 54.93832 | 82.95148 | 529 ft | 141 kts | 195° |
| 2026-04-30 11:58 | 54.93424 | 82.93615 | 498 ft | 155 kts | 246° |
| 2026-04-30 11:59 | 54.93248 | 82.92427 | 610 ft | 150 kts | 275° |
| 2026-04-30 11:59 | 54.93481 | 82.90599 | 513 ft | 164 kts | 298° |
| 2026-04-30 11:59 | 54.93860 | 82.88746 | 513 ft | 165 kts | 284° |
| 2026-04-30 11:59 | 54.93967 | 82.86861 | 622 ft | 155 kts | 291° |
| 2026-04-30 12:00 | 54.94545 | 82.85545 | 1061 ft | 143 kts | 316° |
| 2026-04-30 12:00 | 54.95641 | 82.84966 | 519 ft | 183 kts | 351° |
| 2026-04-30 12:00 | 54.96902 | 82.84800 | 487 ft | 180 kts | 357° |
| 2026-04-30 12:00 | 54.98146 | 82.84715 | 442 ft | 179 kts | 3° |
| 2026-04-30 12:01 | 54.99371 | 82.84929 | 452 ft | 176 kts | 6° |
| 2026-04-30 12:01 | 55.00588 | 82.85173 | 446 ft | 173 kts | 15° |
| 2026-04-30 12:01 | 55.01734 | 82.85513 | 513 ft | 170 kts | 22° |
| 2026-04-30 12:01 | 55.02718 | 82.86619 | 465 ft | 172 kts | 39° |
| 2026-04-30 12:02 | 55.03501 | 82.88160 | 522 ft | 171 kts | 59° |
| 2026-04-30 12:02 | 55.04234 | 82.89705 | 610 ft | 157 kts | 43° |
| 2026-04-30 12:02 | 55.04861 | 82.91289 | 659 ft | 161 kts | 60° |
| 2026-04-30 12:02 | 55.05588 | 82.91661 | 628 ft | 154 kts | 269° |
| 2026-04-30 12:03 | 55.05353 | 82.90031 | 527 ft | 144 kts | 235° |